sensor_id;sensor_type;location;lat;lon;timestamp;temperature;humidity
65824;SHT31;52585;47.566;19.056;2023-02-24T00:01:59;10.00;61.65
65824;SHT31;52585;47.566;19.056;2023-02-24T00:04:33;9.99;61.73
65824;SHT31;52585;47.566;19.056;2023-02-24T00:07:08;9.97;61.70
65824;SHT31;52585;47.566;19.056;2023-02-24T00:09:36;9.97;61.77
65824;SHT31;52585;47.566;19.056;2023-02-24T00:12:05;9.97;62.38
65824;SHT31;52585;47.566;19.056;2023-02-24T00:14:37;9.96;62.44
65824;SHT31;52585;47.566;19.056;2023-02-24T00:17:06;9.96;63.23
65824;SHT31;52585;47.566;19.056;2023-02-24T00:19:34;9.96;63.22
65824;SHT31;52585;47.566;19.056;2023-02-24T00:22:02;9.96;63.24
65824;SHT31;52585;47.566;19.056;2023-02-24T00:24:31;9.96;63.32
65824;SHT31;52585;47.566;19.056;2023-02-24T00:26:58;9.96;63.25
65824;SHT31;52585;47.566;19.056;2023-02-24T00:29:27;9.96;63.23
65824;SHT31;52585;47.566;19.056;2023-02-24T00:31:55;9.95;63.20
65824;SHT31;52585;47.566;19.056;2023-02-24T00:34:26;9.94;63.06
65824;SHT31;52585;47.566;19.056;2023-02-24T00:36:55;9.94;63.13
65824;SHT31;52585;47.566;19.056;2023-02-24T00:39:21;9.93;63.75
65824;SHT31;52585;47.566;19.056;2023-02-24T00:41:52;9.92;63.45
65824;SHT31;52585;47.566;19.056;2023-02-24T00:44:22;9.90;63.16
65824;SHT31;52585;47.566;19.056;2023-02-24T00:46:48;9.88;62.99
65824;SHT31;52585;47.566;19.056;2023-02-24T00:49:16;9.87;62.90
65824;SHT31;52585;47.566;19.056;2023-02-24T00:51:46;9.84;62.82
65824;SHT31;52585;47.566;19.056;2023-02-24T00:54:14;9.82;62.85
65824;SHT31;52585;47.566;19.056;2023-02-24T00:56:41;9.81;62.97
65824;SHT31;52585;47.566;19.056;2023-02-24T00:59:10;9.80;63.10
65824;SHT31;52585;47.566;19.056;2023-02-24T01:01:39;9.77;63.24
65824;SHT31;52585;47.566;19.056;2023-02-24T01:04:08;9.77;63.15
65824;SHT31;52585;47.566;19.056;2023-02-24T01:06:38;9.77;63.11
65824;SHT31;52585;47.566;19.056;2023-02-24T01:09:10;9.76;63.13
65824;SHT31;52585;47.566;19.056;2023-02-24T01:11:39;9.75;63.17
65824;SHT31;52585;47.566;19.056;2023-02-24T01:14:27;9.76;63.43
65824;SHT31;52585;47.566;19.056;2023-02-24T01:16:57;9.77;63.36
65824;SHT31;52585;47.566;19.056;2023-02-24T01:19:27;9.75;63.32
65824;SHT31;52585;47.566;19.056;2023-02-24T01:21:59;9.77;63.29
65824;SHT31;52585;47.566;19.056;2023-02-24T01:24:35;9.77;63.26
65824;SHT31;52585;47.566;19.056;2023-02-24T01:27:04;9.77;63.21
65824;SHT31;52585;47.566;19.056;2023-02-24T01:29:32;9.77;63.23
65824;SHT31;52585;47.566;19.056;2023-02-24T01:32:03;9.76;63.20
65824;SHT31;52585;47.566;19.056;2023-02-24T01:34:37;9.77;63.36
65824;SHT31;52585;47.566;19.056;2023-02-24T01:37:03;9.74;63.33
65824;SHT31;52585;47.566;19.056;2023-02-24T01:39:29;9.76;63.29
65824;SHT31;52585;47.566;19.056;2023-02-24T01:41:55;9.74;63.39
65824;SHT31;52585;47.566;19.056;2023-02-24T01:46:53;9.72;63.25
65824;SHT31;52585;47.566;19.056;2023-02-24T01:49:21;9.71;63.22
65824;SHT31;52585;47.566;19.056;2023-02-24T01:57:28;9.69;63.23
65824;SHT31;52585;47.566;19.056;2023-02-24T01:59:59;9.69;63.24
65824;SHT31;52585;47.566;19.056;2023-02-24T02:02:40;9.68;63.28
65824;SHT31;52585;47.566;19.056;2023-02-24T02:05:10;9.68;63.33
65824;SHT31;52585;47.566;19.056;2023-02-24T02:07:36;9.68;63.38
65824;SHT31;52585;47.566;19.056;2023-02-24T02:10:06;9.69;63.65
65824;SHT31;52585;47.566;19.056;2023-02-24T02:12:34;9.69;63.80
65824;SHT31;52585;47.566;19.056;2023-02-24T02:15:08;9.69;64.16
65824;SHT31;52585;47.566;19.056;2023-02-24T02:32:42;9.66;63.89
65824;SHT31;52585;47.566;19.056;2023-02-24T02:42:29;9.60;63.98
65824;SHT31;52585;47.566;19.056;2023-02-24T02:45:12;9.59;63.97
65824;SHT31;52585;47.566;19.056;2023-02-24T02:53:31;9.58;63.86
65824;SHT31;52585;47.566;19.056;2023-02-24T02:56:27;9.57;63.97
65824;SHT31;52585;47.566;19.056;2023-02-24T02:59:00;9.58;64.06
65824;SHT31;52585;47.566;19.056;2023-02-24T03:01:30;9.60;64.10
65824;SHT31;52585;47.566;19.056;2023-02-24T03:04:03;9.59;64.31
65824;SHT31;52585;47.566;19.056;2023-02-24T03:06:34;9.60;64.24
65824;SHT31;52585;47.566;19.056;2023-02-24T03:09:09;9.60;64.38
65824;SHT31;52585;47.566;19.056;2023-02-24T03:11:43;9.61;64.44
65824;SHT31;52585;47.566;19.056;2023-02-24T03:14:16;9.60;64.37
65824;SHT31;52585;47.566;19.056;2023-02-24T03:16:48;9.60;64.36
65824;SHT31;52585;47.566;19.056;2023-02-24T03:19:20;9.59;64.59
65824;SHT31;52585;47.566;19.056;2023-02-24T03:22:09;9.59;64.58
65824;SHT31;52585;47.566;19.056;2023-02-24T03:24:51;9.56;64.51
65824;SHT31;52585;47.566;19.056;2023-02-24T03:30:43;9.53;64.83
65824;SHT31;52585;47.566;19.056;2023-02-24T03:33:23;9.51;65.06
65824;SHT31;52585;47.566;19.056;2023-02-24T03:36:02;9.50;65.13
65824;SHT31;52585;47.566;19.056;2023-02-24T03:38:29;9.50;65.34
65824;SHT31;52585;47.566;19.056;2023-02-24T03:40:58;9.51;65.34
65824;SHT31;52585;47.566;19.056;2023-02-24T03:43:27;9.52;65.26
65824;SHT31;52585;47.566;19.056;2023-02-24T03:45:57;9.52;65.33
65824;SHT31;52585;47.566;19.056;2023-02-24T03:48:28;9.52;65.19
65824;SHT31;52585;47.566;19.056;2023-02-24T03:50:54;9.51;65.18
65824;SHT31;52585;47.566;19.056;2023-02-24T03:56:45;9.48;65.17
65824;SHT31;52585;47.566;19.056;2023-02-24T03:59:41;9.48;65.21
65824;SHT31;52585;47.566;19.056;2023-02-24T04:03:24;9.45;65.27
65824;SHT31;52585;47.566;19.056;2023-02-24T04:06:17;9.43;65.35
65824;SHT31;52585;47.566;19.056;2023-02-24T04:12:41;9.36;65.55
65824;SHT31;52585;47.566;19.056;2023-02-24T04:15:38;9.35;65.39
65824;SHT31;52585;47.566;19.056;2023-02-24T04:18:42;9.35;65.50
65824;SHT31;52585;47.566;19.056;2023-02-24T04:21:02;9.33;65.73
65824;SHT31;52585;47.566;19.056;2023-02-24T04:23:32;9.34;65.99
65824;SHT31;52585;47.566;19.056;2023-02-24T04:26:05;9.34;66.01
65824;SHT31;52585;47.566;19.056;2023-02-24T04:28:36;9.34;65.92
65824;SHT31;52585;47.566;19.056;2023-02-24T04:31:05;9.32;65.91
65824;SHT31;52585;47.566;19.056;2023-02-24T04:33:35;9.34;65.83
65824;SHT31;52585;47.566;19.056;2023-02-24T04:36:05;9.33;65.60
65824;SHT31;52585;47.566;19.056;2023-02-24T04:38:33;9.31;65.45
65824;SHT31;52585;47.566;19.056;2023-02-24T04:41:00;9.30;65.55
65824;SHT31;52585;47.566;19.056;2023-02-24T04:43:27;9.29;65.32
65824;SHT31;52585;47.566;19.056;2023-02-24T04:45:53;9.27;65.24
65824;SHT31;52585;47.566;19.056;2023-02-24T04:48:20;9.29;65.24
65824;SHT31;52585;47.566;19.056;2023-02-24T04:50:45;9.28;65.34
65824;SHT31;52585;47.566;19.056;2023-02-24T04:53:19;9.25;65.61
65824;SHT31;52585;47.566;19.056;2023-02-24T04:55:51;9.26;65.59
65824;SHT31;52585;47.566;19.056;2023-02-24T04:58:22;9.26;65.67
65824;SHT31;52585;47.566;19.056;2023-02-24T05:00:53;9.27;65.72
65824;SHT31;52585;47.566;19.056;2023-02-24T05:03:20;9.27;65.65
65824;SHT31;52585;47.566;19.056;2023-02-24T05:05:52;9.28;65.82
65824;SHT31;52585;47.566;19.056;2023-02-24T05:08:22;9.30;65.75
65824;SHT31;52585;47.566;19.056;2023-02-24T05:10:50;9.30;65.60
65824;SHT31;52585;47.566;19.056;2023-02-24T05:13:17;9.28;65.53
65824;SHT31;52585;47.566;19.056;2023-02-24T05:15:50;9.30;65.64
65824;SHT31;52585;47.566;19.056;2023-02-24T05:18:16;9.30;65.50
65824;SHT31;52585;47.566;19.056;2023-02-24T05:20:46;9.29;65.46
65824;SHT31;52585;47.566;19.056;2023-02-24T05:23:37;9.27;65.47
65824;SHT31;52585;47.566;19.056;2023-02-24T05:26:09;9.27;65.50
65824;SHT31;52585;47.566;19.056;2023-02-24T05:28:43;9.26;65.54
65824;SHT31;52585;47.566;19.056;2023-02-24T05:31:25;9.23;65.69
65824;SHT31;52585;47.566;19.056;2023-02-24T05:33:57;9.23;65.64
65824;SHT31;52585;47.566;19.056;2023-02-24T05:36:36;9.22;65.80
65824;SHT31;52585;47.566;19.056;2023-02-24T05:39:05;9.22;65.88
65824;SHT31;52585;47.566;19.056;2023-02-24T05:41:36;9.22;65.95
65824;SHT31;52585;47.566;19.056;2023-02-24T05:44:07;9.24;65.98
65824;SHT31;52585;47.566;19.056;2023-02-24T05:46:38;9.25;66.06
65824;SHT31;52585;47.566;19.056;2023-02-24T05:49:09;9.27;65.98
65824;SHT31;52585;47.566;19.056;2023-02-24T05:51:39;9.26;65.97
65824;SHT31;52585;47.566;19.056;2023-02-24T05:54:11;9.26;65.88
65824;SHT31;52585;47.566;19.056;2023-02-24T05:56:39;9.28;65.84
65824;SHT31;52585;47.566;19.056;2023-02-24T05:59:09;9.28;65.84
65824;SHT31;52585;47.566;19.056;2023-02-24T06:01:38;9.27;65.82
65824;SHT31;52585;47.566;19.056;2023-02-24T06:04:06;9.25;65.84
65824;SHT31;52585;47.566;19.056;2023-02-24T06:06:37;9.24;65.83
65824;SHT31;52585;47.566;19.056;2023-02-24T06:09:06;9.23;65.95
65824;SHT31;52585;47.566;19.056;2023-02-24T06:11:37;9.21;66.11
65824;SHT31;52585;47.566;19.056;2023-02-24T06:14:05;9.19;66.12
65824;SHT31;52585;47.566;19.056;2023-02-24T06:16:36;9.20;66.35
65824;SHT31;52585;47.566;19.056;2023-02-24T06:19:04;9.20;66.51
65824;SHT31;52585;47.566;19.056;2023-02-24T06:21:35;9.22;66.52
65824;SHT31;52585;47.566;19.056;2023-02-24T06:24:06;9.23;66.52
65824;SHT31;52585;47.566;19.056;2023-02-24T06:26:42;9.23;66.52
65824;SHT31;52585;47.566;19.056;2023-02-24T06:29:10;9.24;66.49
65824;SHT31;52585;47.566;19.056;2023-02-24T06:31:41;9.25;66.47
65824;SHT31;52585;47.566;19.056;2023-02-24T06:34:09;9.27;66.45
65824;SHT31;52585;47.566;19.056;2023-02-24T06:36:37;9.27;66.40
65824;SHT31;52585;47.566;19.056;2023-02-24T06:39:03;9.27;66.51
65824;SHT31;52585;47.566;19.056;2023-02-24T06:41:32;9.28;66.52
65824;SHT31;52585;47.566;19.056;2023-02-24T06:43:59;9.27;66.53
65824;SHT31;52585;47.566;19.056;2023-02-24T06:46:25;9.29;66.61
65824;SHT31;52585;47.566;19.056;2023-02-24T06:48:50;9.29;66.67
65824;SHT31;52585;47.566;19.056;2023-02-24T06:51:16;9.30;66.73
65824;SHT31;52585;47.566;19.056;2023-02-24T06:53:42;9.30;66.86
65824;SHT31;52585;47.566;19.056;2023-02-24T06:56:12;9.31;67.04
65824;SHT31;52585;47.566;19.056;2023-02-24T06:58:45;9.32;67.03
65824;SHT31;52585;47.566;19.056;2023-02-24T07:01:17;9.34;66.98
65824;SHT31;52585;47.566;19.056;2023-02-24T07:03:50;9.35;66.94
65824;SHT31;52585;47.566;19.056;2023-02-24T07:06:27;9.36;67.03
65824;SHT31;52585;47.566;19.056;2023-02-24T07:08:59;9.39;66.96
65824;SHT31;52585;47.566;19.056;2023-02-24T07:11:38;9.40;66.93
65824;SHT31;52585;47.566;19.056;2023-02-24T07:14:07;9.41;66.82
65824;SHT31;52585;47.566;19.056;2023-02-24T07:16:35;9.43;66.96
65824;SHT31;52585;47.566;19.056;2023-02-24T07:19:05;9.44;66.97
65824;SHT31;52585;47.566;19.056;2023-02-24T07:21:38;9.47;67.15
65824;SHT31;52585;47.566;19.056;2023-02-24T07:24:10;9.48;67.18
65824;SHT31;52585;47.566;19.056;2023-02-24T07:26:44;9.52;67.43
65824;SHT31;52585;47.566;19.056;2023-02-24T07:29:15;9.54;67.23
65824;SHT31;52585;47.566;19.056;2023-02-24T07:31:42;9.57;67.40
65824;SHT31;52585;47.566;19.056;2023-02-24T07:34:08;9.62;67.27
65824;SHT31;52585;47.566;19.056;2023-02-24T07:36:34;9.66;67.17
65824;SHT31;52585;47.566;19.056;2023-02-24T07:39:13;9.69;67.12
65824;SHT31;52585;47.566;19.056;2023-02-24T07:41:41;9.71;67.13
65824;SHT31;52585;47.566;19.056;2023-02-24T07:44:11;9.73;66.98
65824;SHT31;52585;47.566;19.056;2023-02-24T07:46:38;9.75;66.90
65824;SHT31;52585;47.566;19.056;2023-02-24T07:49:05;9.75;66.96
65824;SHT31;52585;47.566;19.056;2023-02-24T07:51:33;9.77;67.00
65824;SHT31;52585;47.566;19.056;2023-02-24T07:54:00;9.79;66.97
65824;SHT31;52585;47.566;19.056;2023-02-24T07:56:28;9.80;67.00
65824;SHT31;52585;47.566;19.056;2023-02-24T07:59:00;9.82;67.23
65824;SHT31;52585;47.566;19.056;2023-02-24T08:01:33;9.84;67.15
65824;SHT31;52585;47.566;19.056;2023-02-24T08:04:04;9.86;67.05
65824;SHT31;52585;47.566;19.056;2023-02-24T08:06:34;9.88;66.93
65824;SHT31;52585;47.566;19.056;2023-02-24T08:09:12;9.90;66.85
65824;SHT31;52585;47.566;19.056;2023-02-24T08:14:20;9.92;66.78
65824;SHT31;52585;47.566;19.056;2023-02-24T08:16:50;9.94;66.88
65824;SHT31;52585;47.566;19.056;2023-02-24T08:19:24;9.95;66.85
65824;SHT31;52585;47.566;19.056;2023-02-24T08:22:04;9.95;66.89
65824;SHT31;52585;47.566;19.056;2023-02-24T08:24:52;9.97;67.10
65824;SHT31;52585;47.566;19.056;2023-02-24T08:27:23;9.97;67.07
65824;SHT31;52585;47.566;19.056;2023-02-24T08:29:54;10.00;66.98
65824;SHT31;52585;47.566;19.056;2023-02-24T08:32:26;10.03;66.94
65824;SHT31;52585;47.566;19.056;2023-02-24T08:35:10;10.06;66.87
65824;SHT31;52585;47.566;19.056;2023-02-24T08:37:40;10.09;66.93
65824;SHT31;52585;47.566;19.056;2023-02-24T08:40:13;10.13;66.84
65824;SHT31;52585;47.566;19.056;2023-02-24T08:43:03;10.16;66.97
65824;SHT31;52585;47.566;19.056;2023-02-24T08:48:38;10.22;66.99
65824;SHT31;52585;47.566;19.056;2023-02-24T08:51:18;10.24;66.86
65824;SHT31;52585;47.566;19.056;2023-02-24T08:54:13;10.27;66.73
65824;SHT31;52585;47.566;19.056;2023-02-24T08:56:43;10.29;66.73
65824;SHT31;52585;47.566;19.056;2023-02-24T08:59:20;10.33;66.78
65824;SHT31;52585;47.566;19.056;2023-02-24T09:02:15;10.38;66.98
65824;SHT31;52585;47.566;19.056;2023-02-24T09:04:48;10.42;66.99
65824;SHT31;52585;47.566;19.056;2023-02-24T09:07:21;10.46;67.00
65824;SHT31;52585;47.566;19.056;2023-02-24T09:09:53;10.51;66.99
65824;SHT31;52585;47.566;19.056;2023-02-24T09:12:23;10.55;66.89
65824;SHT31;52585;47.566;19.056;2023-02-24T09:14:58;10.58;66.81
65824;SHT31;52585;47.566;19.056;2023-02-24T09:17:32;10.62;66.74
65824;SHT31;52585;47.566;19.056;2023-02-24T09:20:11;10.66;66.82
65824;SHT31;52585;47.566;19.056;2023-02-24T09:23:03;10.71;66.82
65824;SHT31;52585;47.566;19.056;2023-02-24T09:25:31;10.76;66.72
65824;SHT31;52585;47.566;19.056;2023-02-24T09:28:17;10.79;66.67
65824;SHT31;52585;47.566;19.056;2023-02-24T09:30:56;10.83;66.71
65824;SHT31;52585;47.566;19.056;2023-02-24T09:33:32;10.89;66.78
65824;SHT31;52585;47.566;19.056;2023-02-24T09:39:06;10.98;66.45
65824;SHT31;52585;47.566;19.056;2023-02-24T09:41:38;11.02;66.67
65824;SHT31;52585;47.566;19.056;2023-02-24T09:44:23;11.10;66.80
65824;SHT31;52585;47.566;19.056;2023-02-24T09:50:02;11.25;66.93
65824;SHT31;52585;47.566;19.056;2023-02-24T09:52:41;11.34;66.84
65824;SHT31;52585;47.566;19.056;2023-02-24T09:55:13;11.40;66.40
65824;SHT31;52585;47.566;19.056;2023-02-24T10:07:11;11.57;65.93
65824;SHT31;52585;47.566;19.056;2023-02-24T10:10:02;11.60;66.02
65824;SHT31;52585;47.566;19.056;2023-02-24T10:15:45;11.63;65.99
65824;SHT31;52585;47.566;19.056;2023-02-24T10:18:26;11.65;65.81
65824;SHT31;52585;47.566;19.056;2023-02-24T10:32:55;11.75;65.66
65824;SHT31;52585;47.566;19.056;2023-02-24T10:35:27;11.75;65.71
65824;SHT31;52585;47.566;19.056;2023-02-24T10:38:01;11.77;65.83
65824;SHT31;52585;47.566;19.056;2023-02-24T10:40:31;11.78;65.88
65824;SHT31;52585;47.566;19.056;2023-02-24T10:43:22;11.81;65.93
65824;SHT31;52585;47.566;19.056;2023-02-24T10:45:55;11.85;66.01
65824;SHT31;52585;47.566;19.056;2023-02-24T10:48:41;11.89;65.95
65824;SHT31;52585;47.566;19.056;2023-02-24T10:51:17;11.92;65.88
65824;SHT31;52585;47.566;19.056;2023-02-24T10:53:49;11.97;65.70
65824;SHT31;52585;47.566;19.056;2023-02-24T10:56:39;12.01;65.74
65824;SHT31;52585;47.566;19.056;2023-02-24T10:59:12;12.07;65.71
65824;SHT31;52585;47.566;19.056;2023-02-24T11:02:15;12.11;65.58
65824;SHT31;52585;47.566;19.056;2023-02-24T11:05:04;12.15;65.59
65824;SHT31;52585;47.566;19.056;2023-02-24T11:08:02;12.18;65.33
65824;SHT31;52585;47.566;19.056;2023-02-24T11:10:38;12.23;65.10
65824;SHT31;52585;47.566;19.056;2023-02-24T11:13:17;12.29;65.03
65824;SHT31;52585;47.566;19.056;2023-02-24T11:16:02;12.33;64.96
65824;SHT31;52585;47.566;19.056;2023-02-24T11:18:51;12.38;65.02
65824;SHT31;52585;47.566;19.056;2023-02-24T11:21:21;12.43;64.96
65824;SHT31;52585;47.566;19.056;2023-02-24T11:23:52;12.48;64.85
65824;SHT31;52585;47.566;19.056;2023-02-24T11:26:44;12.54;64.85
65824;SHT31;52585;47.566;19.056;2023-02-24T11:34:54;12.69;64.82
65824;SHT31;52585;47.566;19.056;2023-02-24T11:43:16;12.87;64.32
65824;SHT31;52585;47.566;19.056;2023-02-24T11:45:57;12.94;64.07
65824;SHT31;52585;47.566;19.056;2023-02-24T11:48:54;13.02;63.86
65824;SHT31;52585;47.566;19.056;2023-02-24T11:51:27;13.07;63.71
65824;SHT31;52585;47.566;19.056;2023-02-24T11:54:04;13.13;63.71
65824;SHT31;52585;47.566;19.056;2023-02-24T11:56:41;13.17;63.57
65824;SHT31;52585;47.566;19.056;2023-02-24T12:07:31;13.35;64.44
65824;SHT31;52585;47.566;19.056;2023-02-24T12:10:09;13.46;65.06
65824;SHT31;52585;47.566;19.056;2023-02-24T12:15:39;13.65;64.18
65824;SHT31;52585;47.566;19.056;2023-02-24T12:18:29;13.67;63.59
65824;SHT31;52585;47.566;19.056;2023-02-24T12:21:10;13.66;63.62
65824;SHT31;52585;47.566;19.056;2023-02-24T12:23:41;13.66;63.03
65824;SHT31;52585;47.566;19.056;2023-02-24T12:32:08;13.56;63.06
65824;SHT31;52585;47.566;19.056;2023-02-24T12:41:29;13.49;63.73
65824;SHT31;52585;47.566;19.056;2023-02-24T12:47:03;13.45;63.94
65824;SHT31;52585;47.566;19.056;2023-02-24T12:52:51;13.46;63.87
65824;SHT31;52585;47.566;19.056;2023-02-24T12:58:36;13.48;63.75
65824;SHT31;52585;47.566;19.056;2023-02-24T13:03:58;13.49;63.49
65824;SHT31;52585;47.566;19.056;2023-02-24T13:09:39;13.49;63.81
65824;SHT31;52585;47.566;19.056;2023-02-24T13:12:35;13.48;63.77
65824;SHT31;52585;47.566;19.056;2023-02-24T13:15:23;13.47;63.90
65824;SHT31;52585;47.566;19.056;2023-02-24T13:17:52;13.47;63.70
65824;SHT31;52585;47.566;19.056;2023-02-24T13:23:01;13.47;63.82
65824;SHT31;52585;47.566;19.056;2023-02-24T13:25:41;13.47;63.68
65824;SHT31;52585;47.566;19.056;2023-02-24T13:28:22;13.47;63.51
65824;SHT31;52585;47.566;19.056;2023-02-24T13:31:11;13.48;63.04
65824;SHT31;52585;47.566;19.056;2023-02-24T13:33:41;13.48;63.10
65824;SHT31;52585;47.566;19.056;2023-02-24T13:38:47;13.47;63.00
65824;SHT31;52585;47.566;19.056;2023-02-24T13:41:44;13.47;62.95
65824;SHT31;52585;47.566;19.056;2023-02-24T13:44:24;13.46;63.04
65824;SHT31;52585;47.566;19.056;2023-02-24T13:52:54;13.44;62.81
65824;SHT31;52585;47.566;19.056;2023-02-24T14:03:42;13.45;62.80
65824;SHT31;52585;47.566;19.056;2023-02-24T14:06:28;13.40;62.64
65824;SHT31;52585;47.566;19.056;2023-02-24T14:08:55;13.39;62.78
65824;SHT31;52585;47.566;19.056;2023-02-24T14:11:27;13.38;62.62
65824;SHT31;52585;47.566;19.056;2023-02-24T14:13:58;13.36;62.67
65824;SHT31;52585;47.566;19.056;2023-02-24T14:16:34;13.35;61.62
65824;SHT31;52585;47.566;19.056;2023-02-24T14:19:05;13.35;61.81
65824;SHT31;52585;47.566;19.056;2023-02-24T14:21:58;13.34;61.11
65824;SHT31;52585;47.566;19.056;2023-02-24T14:24:25;13.34;60.92
65824;SHT31;52585;47.566;19.056;2023-02-24T14:26:53;13.33;61.11
65824;SHT31;52585;47.566;19.056;2023-02-24T14:29:24;13.32;60.93
65824;SHT31;52585;47.566;19.056;2023-02-24T14:31:56;13.32;60.40
65824;SHT31;52585;47.566;19.056;2023-02-24T14:34:24;13.31;60.44
65824;SHT31;52585;47.566;19.056;2023-02-24T14:36:55;13.32;60.36
65824;SHT31;52585;47.566;19.056;2023-02-24T14:39:25;13.31;60.51
65824;SHT31;52585;47.566;19.056;2023-02-24T14:44:40;13.30;60.49
65824;SHT31;52585;47.566;19.056;2023-02-24T14:47:15;13.32;60.83
65824;SHT31;52585;47.566;19.056;2023-02-24T14:49:56;13.36;61.34
65824;SHT31;52585;47.566;19.056;2023-02-24T14:55:12;13.39;59.96
65824;SHT31;52585;47.566;19.056;2023-02-24T15:00:23;13.38;59.85
65824;SHT31;52585;47.566;19.056;2023-02-24T15:02:55;13.38;59.52
65824;SHT31;52585;47.566;19.056;2023-02-24T15:05:45;13.37;59.43
65824;SHT31;52585;47.566;19.056;2023-02-24T15:08:32;13.37;59.30
65824;SHT31;52585;47.566;19.056;2023-02-24T15:11:06;13.36;59.17
65824;SHT31;52585;47.566;19.056;2023-02-24T15:13:41;13.36;59.46
65824;SHT31;52585;47.566;19.056;2023-02-24T15:16:22;13.35;59.62
65824;SHT31;52585;47.566;19.056;2023-02-24T15:18:53;13.34;60.03
65824;SHT31;52585;47.566;19.056;2023-02-24T15:21:32;13.33;59.96
65824;SHT31;52585;47.566;19.056;2023-02-24T15:24:17;13.31;59.86
65824;SHT31;52585;47.566;19.056;2023-02-24T15:26:56;13.30;59.79
65824;SHT31;52585;47.566;19.056;2023-02-24T15:29:44;13.28;59.85
65824;SHT31;52585;47.566;19.056;2023-02-24T15:32:22;13.25;59.74
65824;SHT31;52585;47.566;19.056;2023-02-24T15:34:50;13.25;59.66
65824;SHT31;52585;47.566;19.056;2023-02-24T15:37:27;13.23;59.78
65824;SHT31;52585;47.566;19.056;2023-02-24T15:40:10;13.22;59.89
65824;SHT31;52585;47.566;19.056;2023-02-24T15:48:49;13.17;60.10
65824;SHT31;52585;47.566;19.056;2023-02-24T15:53:59;13.15;60.13
65824;SHT31;52585;47.566;19.056;2023-02-24T15:56:29;13.13;60.25
65824;SHT31;52585;47.566;19.056;2023-02-24T15:58:58;13.13;60.32
65824;SHT31;52585;47.566;19.056;2023-02-24T16:01:27;13.12;60.32
65824;SHT31;52585;47.566;19.056;2023-02-24T16:03:55;13.11;60.39
65824;SHT31;52585;47.566;19.056;2023-02-24T16:06:22;13.09;60.20
65824;SHT31;52585;47.566;19.056;2023-02-24T16:08:49;13.09;60.28
65824;SHT31;52585;47.566;19.056;2023-02-24T16:11:22;13.07;60.35
65824;SHT31;52585;47.566;19.056;2023-02-24T16:13:54;13.06;60.39
65824;SHT31;52585;47.566;19.056;2023-02-24T16:16:23;13.05;60.58
65824;SHT31;52585;47.566;19.056;2023-02-24T16:18:51;13.02;60.61
65824;SHT31;52585;47.566;19.056;2023-02-24T16:21:17;13.01;60.68
65824;SHT31;52585;47.566;19.056;2023-02-24T16:23:43;12.99;60.89
65824;SHT31;52585;47.566;19.056;2023-02-24T16:26:16;12.96;60.88
65824;SHT31;52585;47.566;19.056;2023-02-24T16:28:50;12.93;60.78
65824;SHT31;52585;47.566;19.056;2023-02-24T16:31:25;12.93;60.73
65824;SHT31;52585;47.566;19.056;2023-02-24T16:33:52;12.91;60.81
65824;SHT31;52585;47.566;19.056;2023-02-24T16:36:18;12.90;60.85
65824;SHT31;52585;47.566;19.056;2023-02-24T16:38:44;12.90;60.73
65824;SHT31;52585;47.566;19.056;2023-02-24T16:41:13;12.89;60.61
65824;SHT31;52585;47.566;19.056;2023-02-24T16:43:39;12.88;60.69
65824;SHT31;52585;47.566;19.056;2023-02-24T16:46:06;12.86;60.78
65824;SHT31;52585;47.566;19.056;2023-02-24T16:48:47;12.84;60.77
65824;SHT31;52585;47.566;19.056;2023-02-24T16:51:17;12.82;60.80
65824;SHT31;52585;47.566;19.056;2023-02-24T16:53:43;12.81;60.86
65824;SHT31;52585;47.566;19.056;2023-02-24T16:56:11;12.80;60.99
65824;SHT31;52585;47.566;19.056;2023-02-24T16:58:39;12.78;61.05
65824;SHT31;52585;47.566;19.056;2023-02-24T17:01:06;12.75;61.11
65824;SHT31;52585;47.566;19.056;2023-02-24T17:03:40;12.73;61.11
65824;SHT31;52585;47.566;19.056;2023-02-24T17:06:09;12.71;61.22
65824;SHT31;52585;47.566;19.056;2023-02-24T17:08:35;12.69;61.29
65824;SHT31;52585;47.566;19.056;2023-02-24T17:11:01;12.66;61.38
65824;SHT31;52585;47.566;19.056;2023-02-24T17:13:30;12.63;61.34
65824;SHT31;52585;47.566;19.056;2023-02-24T17:15:55;12.61;61.40
65824;SHT31;52585;47.566;19.056;2023-02-24T17:18:21;12.59;61.47
65824;SHT31;52585;47.566;19.056;2023-02-24T17:20:49;12.58;61.52
65824;SHT31;52585;47.566;19.056;2023-02-24T17:23:17;12.56;61.48
65824;SHT31;52585;47.566;19.056;2023-02-24T17:25:43;12.54;61.40
65824;SHT31;52585;47.566;19.056;2023-02-24T17:28:18;12.52;61.50
65824;SHT31;52585;47.566;19.056;2023-02-24T17:30:44;12.49;61.54
65824;SHT31;52585;47.566;19.056;2023-02-24T17:33:10;12.48;61.55
65824;SHT31;52585;47.566;19.056;2023-02-24T17:35:41;12.45;61.60
65824;SHT31;52585;47.566;19.056;2023-02-24T17:38:14;12.44;61.61
65824;SHT31;52585;47.566;19.056;2023-02-24T17:40:45;12.42;61.65
65824;SHT31;52585;47.566;19.056;2023-02-24T17:43:11;12.41;61.70
65824;SHT31;52585;47.566;19.056;2023-02-24T17:45:41;12.40;61.72
65824;SHT31;52585;47.566;19.056;2023-02-24T17:48:10;12.39;61.65
65824;SHT31;52585;47.566;19.056;2023-02-24T17:50:43;12.36;61.69
65824;SHT31;52585;47.566;19.056;2023-02-24T17:53:11;12.33;61.75
65824;SHT31;52585;47.566;19.056;2023-02-24T17:55:39;12.31;61.80
65824;SHT31;52585;47.566;19.056;2023-02-24T17:58:06;12.29;61.78
65824;SHT31;52585;47.566;19.056;2023-02-24T18:00:33;12.26;61.77
65824;SHT31;52585;47.566;19.056;2023-02-24T18:03:02;12.24;61.84
65824;SHT31;52585;47.566;19.056;2023-02-24T18:05:28;12.23;61.69
65824;SHT31;52585;47.566;19.056;2023-02-24T18:07:56;12.23;61.62
65824;SHT31;52585;47.566;19.056;2023-02-24T18:10:23;12.21;61.69
65824;SHT31;52585;47.566;19.056;2023-02-24T18:12:51;12.20;61.75
65824;SHT31;52585;47.566;19.056;2023-02-24T18:15:17;12.20;61.82
65824;SHT31;52585;47.566;19.056;2023-02-24T18:17:44;12.18;61.77
65824;SHT31;52585;47.566;19.056;2023-02-24T18:20:10;12.19;61.78
65824;SHT31;52585;47.566;19.056;2023-02-24T18:22:38;12.16;61.78
65824;SHT31;52585;47.566;19.056;2023-02-24T18:25:04;12.14;61.85
65824;SHT31;52585;47.566;19.056;2023-02-24T18:27:31;12.14;61.87
65824;SHT31;52585;47.566;19.056;2023-02-24T18:29:57;12.15;61.88
65824;SHT31;52585;47.566;19.056;2023-02-24T18:32:23;12.13;61.78
65824;SHT31;52585;47.566;19.056;2023-02-24T18:34:50;12.14;61.66
65824;SHT31;52585;47.566;19.056;2023-02-24T18:37:16;12.15;61.66
65824;SHT31;52585;47.566;19.056;2023-02-24T18:39:42;12.16;61.63
65824;SHT31;52585;47.566;19.056;2023-02-24T18:42:08;12.17;61.62
65824;SHT31;52585;47.566;19.056;2023-02-24T18:44:36;12.18;61.59
65824;SHT31;52585;47.566;19.056;2023-02-24T18:47:03;12.18;61.52
65824;SHT31;52585;47.566;19.056;2023-02-24T18:49:33;12.19;61.63